sensor_id;sensor_type;location;lat;lon;timestamp;pressure;altitude;pressure_sealevel;temperature;humidity
82784;BME280;72520;55.762;37.780;2023-08-31T00:02:42;99892.16;;;16.41;67.25
82784;BME280;72520;55.762;37.780;2023-08-31T00:05:49;99894.03;;;16.19;67.94
82784;BME280;72520;55.762;37.780;2023-08-31T00:08:54;99888.47;;;16.02;68.77
82784;BME280;72520;55.762;37.780;2023-08-31T00:11:59;99892.91;;;16.12;68.67
82784;BME280;72520;55.762;37.780;2023-08-31T00:15:06;99898.19;;;16.03;68.80
82784;BME280;72520;55.762;37.780;2023-08-31T00:18:11;99889.16;;;16.04;68.29
82784;BME280;72520;55.762;37.780;2023-08-31T00:21:20;99889.81;;;15.96;68.64
82784;BME280;72520;55.762;37.780;2023-08-31T00:24:25;99902.66;;;15.93;69.41
82784;BME280;72520;55.762;37.780;2023-08-31T00:27:32;99900.38;;;15.88;69.12
82784;BME280;72520;55.762;37.780;2023-08-31T00:30:36;99901.41;;;15.76;69.75
82784;BME280;72520;55.762;37.780;2023-08-31T00:33:40;99902.75;;;15.82;69.42
82784;BME280;72520;55.762;37.780;2023-08-31T00:36:46;99897.38;;;15.82;69.62
82784;BME280;72520;55.762;37.780;2023-08-31T00:39:51;99903.97;;;15.77;70.01
82784;BME280;72520;55.762;37.780;2023-08-31T00:42:56;99901.84;;;15.71;69.59
82784;BME280;72520;55.762;37.780;2023-08-31T00:46:01;99911.50;;;15.63;70.07
82784;BME280;72520;55.762;37.780;2023-08-31T00:49:05;99916.41;;;15.58;70.28
82784;BME280;72520;55.762;37.780;2023-08-31T00:52:12;99918.63;;;15.53;71.18
82784;BME280;72520;55.762;37.780;2023-08-31T00:55:17;99918.88;;;15.50;71.24
82784;BME280;72520;55.762;37.780;2023-08-31T00:58:22;99907.91;;;15.42;72.21
82784;BME280;72520;55.762;37.780;2023-08-31T01:01:32;99909.88;;;15.40;71.70
82784;BME280;72520;55.762;37.780;2023-08-31T01:04:45;99913.41;;;15.40;71.63
82784;BME280;72520;55.762;37.780;2023-08-31T01:07:58;99915.75;;;15.34;72.13
82784;BME280;72520;55.762;37.780;2023-08-31T01:11:13;99911.34;;;15.33;72.33
82784;BME280;72520;55.762;37.780;2023-08-31T01:14:24;99905.41;;;15.29;72.28
82784;BME280;72520;55.762;37.780;2023-08-31T01:17:30;99904.53;;;15.28;72.18
82784;BME280;72520;55.762;37.780;2023-08-31T01:20:45;99912.72;;;15.27;73.04
82784;BME280;72520;55.762;37.780;2023-08-31T01:23:52;99909.72;;;15.20;72.91
82784;BME280;72520;55.762;37.780;2023-08-31T01:26:57;99913.88;;;15.13;73.60
82784;BME280;72520;55.762;37.780;2023-08-31T01:30:03;99911.88;;;15.26;72.39
82784;BME280;72520;55.762;37.780;2023-08-31T01:33:08;99912.66;;;15.38;72.33
82784;BME280;72520;55.762;37.780;2023-08-31T01:36:20;99907.03;;;15.41;71.52
82784;BME280;72520;55.762;37.780;2023-08-31T01:39:35;99908.91;;;15.41;71.76
82784;BME280;72520;55.762;37.780;2023-08-31T01:42:43;99907.63;;;15.45;71.92
82784;BME280;72520;55.762;37.780;2023-08-31T01:45:48;99897.06;;;15.75;70.55
82784;BME280;72520;55.762;37.780;2023-08-31T01:48:53;99902.28;;;15.97;69.99
82784;BME280;72520;55.762;37.780;2023-08-31T01:51:57;99903.41;;;15.95;69.76
82784;BME280;72520;55.762;37.780;2023-08-31T01:55:04;99906.63;;;15.89;70.28
82784;BME280;72520;55.762;37.780;2023-08-31T01:58:10;99905.16;;;16.05;69.56
82784;BME280;72520;55.762;37.780;2023-08-31T02:01:14;99919.44;;;15.85;70.16
82784;BME280;72520;55.762;37.780;2023-08-31T02:04:18;99915.63;;;15.67;70.70
82784;BME280;72520;55.762;37.780;2023-08-31T02:07:22;99915.69;;;15.76;70.72
82784;BME280;72520;55.762;37.780;2023-08-31T02:10:31;99914.13;;;15.74;70.21
82784;BME280;72520;55.762;37.780;2023-08-31T02:13:36;99910.97;;;15.69;70.96
82784;BME280;72520;55.762;37.780;2023-08-31T02:16:41;99909.47;;;15.76;70.53
82784;BME280;72520;55.762;37.780;2023-08-31T02:19:45;99909.47;;;15.76;70.43
82784;BME280;72520;55.762;37.780;2023-08-31T02:22:50;99903.78;;;15.69;70.53
82784;BME280;72520;55.762;37.780;2023-08-31T02:25:57;99905.00;;;15.65;70.51
82784;BME280;72520;55.762;37.780;2023-08-31T02:29:02;99900.38;;;15.67;70.57
82784;BME280;72520;55.762;37.780;2023-08-31T02:32:07;99900.38;;;15.67;70.29
82784;BME280;72520;55.762;37.780;2023-08-31T02:35:12;99904.63;;;15.70;69.88
82784;BME280;72520;55.762;37.780;2023-08-31T02:38:15;99902.25;;;15.56;70.72
82784;BME280;72520;55.762;37.780;2023-08-31T02:41:21;99912.78;;;15.48;71.09
82784;BME280;72520;55.762;37.780;2023-08-31T02:44:25;99920.59;;;15.40;71.15
82784;BME280;72520;55.762;37.780;2023-08-31T02:47:29;99913.94;;;15.34;71.65
82784;BME280;72520;55.762;37.780;2023-08-31T02:50:34;99913.53;;;15.39;71.19
82784;BME280;72520;55.762;37.780;2023-08-31T02:53:39;99916.72;;;15.33;71.67
82784;BME280;72520;55.762;37.780;2023-08-31T02:56:44;99906.69;;;15.35;71.13
82784;BME280;72520;55.762;37.780;2023-08-31T02:59:50;99892.59;;;15.33;71.56
82784;BME280;72520;55.762;37.780;2023-08-31T03:02:54;99893.50;;;15.54;70.48
82784;BME280;72520;55.762;37.780;2023-08-31T03:05:58;99896.09;;;15.44;70.80
82784;BME280;72520;55.762;37.780;2023-08-31T03:09:03;99895.38;;;15.31;71.95
82784;BME280;72520;55.762;37.780;2023-08-31T03:12:08;99901.47;;;15.33;71.11
82784;BME280;72520;55.762;37.780;2023-08-31T03:15:12;99906.59;;;15.36;71.72
82784;BME280;72520;55.762;37.780;2023-08-31T03:18:18;99897.31;;;15.40;71.04
82784;BME280;72520;55.762;37.780;2023-08-31T03:21:23;99894.22;;;15.45;71.14
82784;BME280;72520;55.762;37.780;2023-08-31T03:24:28;99893.03;;;15.49;71.05
82784;BME280;72520;55.762;37.780;2023-08-31T03:27:36;99896.25;;;15.63;70.47
82784;BME280;72520;55.762;37.780;2023-08-31T03:30:40;99891.31;;;15.68;70.51
82784;BME280;72520;55.762;37.780;2023-08-31T03:33:44;99903.78;;;15.69;70.59
82784;BME280;72520;55.762;37.780;2023-08-31T03:36:49;99899.31;;;15.79;70.06
82784;BME280;72520;55.762;37.780;2023-08-31T03:39:54;99895.34;;;15.74;70.57
82784;BME280;72520;55.762;37.780;2023-08-31T03:43:02;99902.97;;;15.78;70.16
82784;BME280;72520;55.762;37.780;2023-08-31T03:46:06;99905.88;;;16.07;69.02
82784;BME280;72520;55.762;37.780;2023-08-31T03:49:09;99900.06;;;16.02;68.96
82784;BME280;72520;55.762;37.780;2023-08-31T03:52:14;99905.59;;;16.10;68.86
82784;BME280;72520;55.762;37.780;2023-08-31T03:55:18;99906.09;;;16.25;68.24
82784;BME280;72520;55.762;37.780;2023-08-31T03:58:24;99901.00;;;16.22;68.56
82784;BME280;72520;55.762;37.780;2023-08-31T04:01:28;99907.31;;;16.11;68.92
82784;BME280;72520;55.762;37.780;2023-08-31T04:04:34;99909.44;;;16.17;68.81
82784;BME280;72520;55.762;37.780;2023-08-31T04:07:38;99910.34;;;16.27;68.33
82784;BME280;72520;55.762;37.780;2023-08-31T04:10:42;99914.09;;;16.36;68.25
82784;BME280;72520;55.762;37.780;2023-08-31T04:13:48;99913.75;;;16.29;68.42
82784;BME280;72520;55.762;37.780;2023-08-31T04:16:52;99900.81;;;16.44;67.87
82784;BME280;72520;55.762;37.780;2023-08-31T04:19:56;99899.00;;;16.54;67.92
82784;BME280;72520;55.762;37.780;2023-08-31T04:23:01;99903.94;;;16.70;66.99
82784;BME280;72520;55.762;37.780;2023-08-31T04:26:12;99911.44;;;16.76;66.88
82784;BME280;72520;55.762;37.780;2023-08-31T04:29:18;99917.78;;;16.75;67.44
82784;BME280;72520;55.762;37.780;2023-08-31T04:32:23;99913.16;;;16.87;67.33
82784;BME280;72520;55.762;37.780;2023-08-31T04:35:28;99912.63;;;16.93;66.66
82784;BME280;72520;55.762;37.780;2023-08-31T04:38:33;99930.50;;;17.13;65.83
82784;BME280;72520;55.762;37.780;2023-08-31T04:41:38;99928.94;;;17.10;66.47
82784;BME280;72520;55.762;37.780;2023-08-31T04:44:44;99927.09;;;17.11;66.48
82784;BME280;72520;55.762;37.780;2023-08-31T04:47:48;99933.59;;;17.08;66.82
82784;BME280;72520;55.762;37.780;2023-08-31T04:50:56;99924.53;;;17.00;66.57
82784;BME280;72520;55.762;37.780;2023-08-31T04:54:01;99925.50;;;16.99;66.91
82784;BME280;72520;55.762;37.780;2023-08-31T04:57:06;99924.06;;;16.95;67.42
82784;BME280;72520;55.762;37.780;2023-08-31T05:00:15;99932.31;;;17.03;66.97
82784;BME280;72520;55.762;37.780;2023-08-31T05:03:20;99931.91;;;17.07;67.07
82784;BME280;72520;55.762;37.780;2023-08-31T05:06:24;99931.34;;;17.23;66.33
82784;BME280;72520;55.762;37.780;2023-08-31T05:09:28;99928.38;;;17.26;66.32
82784;BME280;72520;55.762;37.780;2023-08-31T05:12:36;99928.66;;;17.33;66.19
82784;BME280;72520;55.762;37.780;2023-08-31T05:15:42;99923.31;;;17.52;65.63
82784;BME280;72520;55.762;37.780;2023-08-31T05:18:46;99915.53;;;17.68;64.98
82784;BME280;72520;55.762;37.780;2023-08-31T05:21:50;99920.06;;;17.77;64.95
82784;BME280;72520;55.762;37.780;2023-08-31T05:24:55;99919.38;;;17.75;64.86
82784;BME280;72520;55.762;37.780;2023-08-31T05:27:59;99914.84;;;17.75;65.50
82784;BME280;72520;55.762;37.780;2023-08-31T05:31:06;99906.72;;;17.95;64.01
82784;BME280;72520;55.762;37.780;2023-08-31T05:34:11;99915.75;;;18.03;63.94
82784;BME280;72520;55.762;37.780;2023-08-31T05:37:18;99908.41;;;18.05;63.95
82784;BME280;72520;55.762;37.780;2023-08-31T05:40:22;99905.09;;;18.21;63.79
82784;BME280;72520;55.762;37.780;2023-08-31T05:43:25;99918.53;;;18.30;63.40
82784;BME280;72520;55.762;37.780;2023-08-31T05:46:31;99915.06;;;18.48;62.68
82784;BME280;72520;55.762;37.780;2023-08-31T05:49:36;99935.81;;;18.57;62.22
82784;BME280;72520;55.762;37.780;2023-08-31T05:52:40;99942.59;;;18.61;61.91
82784;BME280;72520;55.762;37.780;2023-08-31T05:55:46;99942.59;;;18.61;62.35
82784;BME280;72520;55.762;37.780;2023-08-31T05:58:50;99938.28;;;18.68;61.96
82784;BME280;72520;55.762;37.780;2023-08-31T06:01:57;99944.44;;;18.60;62.00
82784;BME280;72520;55.762;37.780;2023-08-31T06:05:02;99944.53;;;18.68;62.55
82784;BME280;72520;55.762;37.780;2023-08-31T06:08:07;99944.84;;;18.65;62.95
82784;BME280;72520;55.762;37.780;2023-08-31T06:11:12;99958.25;;;18.85;61.96
82784;BME280;72520;55.762;37.780;2023-08-31T06:14:16;99954.16;;;19.08;61.26
82784;BME280;72520;55.762;37.780;2023-08-31T06:17:23;99960.66;;;19.05;61.46
82784;BME280;72520;55.762;37.780;2023-08-31T06:20:28;99958.78;;;19.15;61.61
82784;BME280;72520;55.762;37.780;2023-08-31T06:23:32;99959.19;;;19.20;61.22
82784;BME280;72520;55.762;37.780;2023-08-31T06:26:36;99969.97;;;19.20;61.72
82784;BME280;72520;55.762;37.780;2023-08-31T06:29:41;99970.09;;;19.28;61.24
82784;BME280;72520;55.762;37.780;2023-08-31T06:32:47;99981.66;;;19.39;60.78
82784;BME280;72520;55.762;37.780;2023-08-31T06:35:52;99974.44;;;19.57;60.70
82784;BME280;72520;55.762;37.780;2023-08-31T06:38:57;99982.78;;;19.81;59.88
82784;BME280;72520;55.762;37.780;2023-08-31T06:42:02;99978.25;;;19.81;59.70
82784;BME280;72520;55.762;37.780;2023-08-31T06:45:08;99979.00;;;19.92;59.37
82784;BME280;72520;55.762;37.780;2023-08-31T06:48:13;99979.44;;;20.05;59.54
82784;BME280;72520;55.762;37.780;2023-08-31T06:51:17;99973.19;;;20.04;59.55
82784;BME280;72520;55.762;37.780;2023-08-31T06:54:22;99969.53;;;20.31;58.74
82784;BME280;72520;55.762;37.780;2023-08-31T06:57:28;99969.06;;;20.36;58.26
82784;BME280;72520;55.762;37.780;2023-08-31T07:00:32;99979.75;;;20.37;58.76
82784;BME280;72520;55.762;37.780;2023-08-31T07:03:40;99987.66;;;20.30;58.88
82784;BME280;72520;55.762;37.780;2023-08-31T07:06:45;99981.81;;;20.25;58.77
82784;BME280;72520;55.762;37.780;2023-08-31T07:09:49;99990.06;;;20.42;58.89
82784;BME280;72520;55.762;37.780;2023-08-31T07:12:54;99985.94;;;20.55;58.82
82784;BME280;72520;55.762;37.780;2023-08-31T07:16:00;99973.91;;;20.50;58.93
82784;BME280;72520;55.762;37.780;2023-08-31T07:19:06;99979.00;;;20.53;58.37
82784;BME280;72520;55.762;37.780;2023-08-31T07:22:12;99981.69;;;20.53;58.73
82784;BME280;72520;55.762;37.780;2023-08-31T07:25:16;99976.66;;;20.58;58.03
82784;BME280;72520;55.762;37.780;2023-08-31T07:28:22;99972.53;;;20.71;58.00
82784;BME280;72520;55.762;37.780;2023-08-31T07:31:26;99971.34;;;20.74;57.75
82784;BME280;72520;55.762;37.780;2023-08-31T07:34:33;99967.84;;;20.81;57.66
82784;BME280;72520;55.762;37.780;2023-08-31T07:37:39;99965.81;;;20.83;57.65
82784;BME280;72520;55.762;37.780;2023-08-31T07:40:44;99960.25;;;20.85;57.86
82784;BME280;72520;55.762;37.780;2023-08-31T07:43:47;99964.16;;;20.91;57.77
82784;BME280;72520;55.762;37.780;2023-08-31T07:46:52;99964.50;;;20.96;58.01
82784;BME280;72520;55.762;37.780;2023-08-31T07:49:58;99960.13;;;20.95;57.37
82784;BME280;72520;55.762;37.780;2023-08-31T07:53:04;99956.63;;;21.10;56.83
82784;BME280;72520;55.762;37.780;2023-08-31T07:56:08;99959.91;;;21.22;56.37
82784;BME280;72520;55.762;37.780;2023-08-31T07:59:13;99968.94;;;21.39;56.05
82784;BME280;72520;55.762;37.780;2023-08-31T08:02:17;99965.22;;;21.48;56.26
82784;BME280;72520;55.762;37.780;2023-08-31T08:05:24;99970.47;;;21.57;54.53
82784;BME280;72520;55.762;37.780;2023-08-31T08:08:28;99971.84;;;21.61;55.12
82784;BME280;72520;55.762;37.780;2023-08-31T08:11:34;99963.53;;;21.55;54.97
82784;BME280;72520;55.762;37.780;2023-08-31T08:14:39;99962.19;;;21.59;54.89
82784;BME280;72520;55.762;37.780;2023-08-31T08:17:44;99944.94;;;21.60;55.23
82784;BME280;72520;55.762;37.780;2023-08-31T08:20:51;99948.00;;;21.73;54.90
82784;BME280;72520;55.762;37.780;2023-08-31T08:23:56;99954.44;;;21.80;54.95
82784;BME280;72520;55.762;37.780;2023-08-31T08:27:00;99951.03;;;21.86;53.70
82784;BME280;72520;55.762;37.780;2023-08-31T08:30:06;99939.22;;;21.95;54.11
82784;BME280;72520;55.762;37.780;2023-08-31T08:33:10;99939.53;;;22.08;53.13
82784;BME280;72520;55.762;37.780;2023-08-31T08:36:16;99940.22;;;22.10;53.91
82784;BME280;72520;55.762;37.780;2023-08-31T08:39:21;99936.16;;;22.14;53.26
82784;BME280;72520;55.762;37.780;2023-08-31T08:42:26;99934.13;;;22.16;53.36
82784;BME280;72520;55.762;37.780;2023-08-31T08:45:35;99936.97;;;22.15;53.03
82784;BME280;72520;55.762;37.780;2023-08-31T08:48:43;99932.91;;;22.19;52.87
82784;BME280;72520;55.762;37.780;2023-08-31T08:51:50;99932.06;;;22.26;53.20
82784;BME280;72520;55.762;37.780;2023-08-31T08:54:55;99940.72;;;22.22;52.41
82784;BME280;72520;55.762;37.780;2023-08-31T08:58:00;99933.59;;;22.29;52.04
82784;BME280;72520;55.762;37.780;2023-08-31T09:01:08;99935.63;;;22.35;52.11
82784;BME280;72520;55.762;37.780;2023-08-31T09:04:13;99930.34;;;22.42;51.90
82784;BME280;72520;55.762;37.780;2023-08-31T09:07:19;99944.94;;;22.49;51.91
82784;BME280;72520;55.762;37.780;2023-08-31T09:10:24;99944.03;;;22.56;51.82
82784;BME280;72520;55.762;37.780;2023-08-31T09:13:29;99945.38;;;22.60;50.67
82784;BME280;72520;55.762;37.780;2023-08-31T09:16:35;99944.72;;;22.66;50.94
82784;BME280;72520;55.762;37.780;2023-08-31T09:19:39;99947.94;;;22.70;51.32
82784;BME280;72520;55.762;37.780;2023-08-31T09:22:45;99942.66;;;22.76;51.09
82784;BME280;72520;55.762;37.780;2023-08-31T09:25:53;99945.50;;;22.83;50.21
82784;BME280;72520;55.762;37.780;2023-08-31T09:28:57;99953.66;;;22.83;50.21
82784;BME280;72520;55.762;37.780;2023-08-31T09:32:01;99940.06;;;22.91;50.27
82784;BME280;72520;55.762;37.780;2023-08-31T09:35:09;99953.97;;;22.96;49.85
82784;BME280;72520;55.762;37.780;2023-08-31T09:38:15;99944.41;;;23.00;50.18
82784;BME280;72520;55.762;37.780;2023-08-31T09:41:20;99935.25;;;23.01;49.75
82784;BME280;72520;55.762;37.780;2023-08-31T09:44:27;99935.75;;;23.05;50.06
82784;BME280;72520;55.762;37.780;2023-08-31T09:47:32;99938.09;;;23.16;49.20
82784;BME280;72520;55.762;37.780;2023-08-31T09:50:38;99941.72;;;23.31;49.35
82784;BME280;72520;55.762;37.780;2023-08-31T09:53:47;99950.19;;;23.36;49.08
82784;BME280;72520;55.762;37.780;2023-08-31T09:56:55;99947.66;;;23.34;48.66
82784;BME280;72520;55.762;37.780;2023-08-31T10:00:00;99943.06;;;23.43;48.94
82784;BME280;72520;55.762;37.780;2023-08-31T10:03:06;99937.06;;;23.48;49.24
82784;BME280;72520;55.762;37.780;2023-08-31T10:06:14;99939.56;;;23.57;48.64
82784;BME280;72520;55.762;37.780;2023-08-31T10:09:20;99941.31;;;23.73;49.00
82784;BME280;72520;55.762;37.780;2023-08-31T10:12:25;99936.13;;;23.86;47.25
82784;BME280;72520;55.762;37.780;2023-08-31T10:15:32;99934.13;;;23.80;47.48
82784;BME280;72520;55.762;37.780;2023-08-31T10:18:37;99931.91;;;23.83;47.17
82784;BME280;72520;55.762;37.780;2023-08-31T10:21:42;99935.25;;;23.86;47.80
82784;BME280;72520;55.762;37.780;2023-08-31T10:25:00;99936.84;;;23.80;46.43
82784;BME280;72520;55.762;37.780;2023-08-31T10:28:17;99942.41;;;23.87;46.36
82784;BME280;72520;55.762;37.780;2023-08-31T10:31:22;99938.28;;;23.91;46.55
82784;BME280;72520;55.762;37.780;2023-08-31T10:34:36;99938.03;;;24.00;47.50
82784;BME280;72520;55.762;37.780;2023-08-31T10:37:44;99939.75;;;24.01;46.64
82784;BME280;72520;55.762;37.780;2023-08-31T10:41:03;99934.09;;;24.03;48.11
82784;BME280;72520;55.762;37.780;2023-08-31T10:44:20;99925.03;;;24.10;47.11
82784;BME280;72520;55.762;37.780;2023-08-31T10:47:37;99921.59;;;24.16;45.88
82784;BME280;72520;55.762;37.780;2023-08-31T10:50:42;99921.97;;;24.13;45.61
82784;BME280;72520;55.762;37.780;2023-08-31T10:53:46;99926.25;;;24.08;45.69
82784;BME280;72520;55.762;37.780;2023-08-31T10:57:04;99913.97;;;24.12;45.82
82784;BME280;72520;55.762;37.780;2023-08-31T11:00:12;99919.56;;;24.18;46.28
82784;BME280;72520;55.762;37.780;2023-08-31T11:03:19;99915.53;;;24.29;45.81
82784;BME280;72520;55.762;37.780;2023-08-31T11:06:25;99916.34;;;24.29;44.30
82784;BME280;72520;55.762;37.780;2023-08-31T11:09:42;99922.59;;;24.38;45.17
82784;BME280;72520;55.762;37.780;2023-08-31T11:12:50;99913.94;;;24.35;44.15
82784;BME280;72520;55.762;37.780;2023-08-31T11:15:55;99919.00;;;24.38;44.77
82784;BME280;72520;55.762;37.780;2023-08-31T11:19:01;99909.72;;;24.47;44.95
82784;BME280;72520;55.762;37.780;2023-08-31T11:22:07;99906.38;;;24.59;44.95
82784;BME280;72520;55.762;37.780;2023-08-31T11:25:14;99901.38;;;24.63;45.69
82784;BME280;72520;55.762;37.780;2023-08-31T11:28:23;99900.16;;;24.65;45.05
82784;BME280;72520;55.762;37.780;2023-08-31T11:31:28;99891.31;;;24.63;43.58
82784;BME280;72520;55.762;37.780;2023-08-31T11:34:32;99887.19;;;24.67;44.04
82784;BME280;72520;55.762;37.780;2023-08-31T11:37:39;99882.88;;;24.73;44.09
82784;BME280;72520;55.762;37.780;2023-08-31T11:40:45;99883.91;;;24.72;43.55
82784;BME280;72520;55.762;37.780;2023-08-31T11:43:52;99881.81;;;24.74;43.59
82784;BME280;72520;55.762;37.780;2023-08-31T11:46:57;99874.34;;;24.76;44.22
82784;BME280;72520;55.762;37.780;2023-08-31T11:50:03;99881.75;;;24.82;44.43
82784;BME280;72520;55.762;37.780;2023-08-31T11:53:07;99871.59;;;24.76;44.45
82784;BME280;72520;55.762;37.780;2023-08-31T11:56:11;99873.94;;;24.79;44.50
82784;BME280;72520;55.762;37.780;2023-08-31T11:59:18;99876.00;;;24.77;44.15
82784;BME280;72520;55.762;37.780;2023-08-31T12:02:25;99859.03;;;24.75;44.71
82784;BME280;72520;55.762;37.780;2023-08-31T12:05:45;99859.66;;;24.77;44.46
82784;BME280;72520;55.762;37.780;2023-08-31T12:08:51;99852.66;;;24.83;44.78
82784;BME280;72520;55.762;37.780;2023-08-31T12:11:55;99842.50;;;24.76;44.72
82784;BME280;72520;55.762;37.780;2023-08-31T12:15:05;99845.31;;;24.68;45.01
82784;BME280;72520;55.762;37.780;2023-08-31T12:18:11;99841.09;;;24.66;45.03
82784;BME280;72520;55.762;37.780;2023-08-31T12:21:15;99842.84;;;24.73;45.32
82784;BME280;72520;55.762;37.780;2023-08-31T12:24:19;99840.72;;;24.69;45.14
82784;BME280;72520;55.762;37.780;2023-08-31T12:27:25;99844.56;;;24.74;44.79
82784;BME280;72520;55.762;37.780;2023-08-31T12:30:31;99833.47;;;24.76;45.32
82784;BME280;72520;55.762;37.780;2023-08-31T12:33:36;99839.66;;;24.70;45.40
82784;BME280;72520;55.762;37.780;2023-08-31T12:36:40;99844.56;;;24.74;45.78
82784;BME280;72520;55.762;37.780;2023-08-31T12:39:46;99841.84;;;24.74;45.60
82784;BME280;72520;55.762;37.780;2023-08-31T12:42:50;99844.16;;;24.77;45.19
82784;BME280;72520;55.762;37.780;2023-08-31T12:45:56;99838.16;;;24.82;45.17
82784;BME280;72520;55.762;37.780;2023-08-31T12:49:02;99838.44;;;24.87;45.77
82784;BME280;72520;55.762;37.780;2023-08-31T12:52:06;99836.00;;;24.77;44.93
82784;BME280;72520;55.762;37.780;2023-08-31T12:55:11;99830.38;;;24.79;44.99
82784;BME280;72520;55.762;37.780;2023-08-31T12:58:17;99826.91;;;24.85;45.46
82784;BME280;72520;55.762;37.780;2023-08-31T13:01:26;99824.84;;;24.87;45.12
82784;BME280;72520;55.762;37.780;2023-08-31T13:04:30;99826.34;;;24.90;45.68
82784;BME280;72520;55.762;37.780;2023-08-31T13:07:35;99833.22;;;24.86;45.16
82784;BME280;72520;55.762;37.780;2023-08-31T13:10:40;99822.38;;;24.77;45.48
82784;BME280;72520;55.762;37.780;2023-08-31T13:13:44;99832.53;;;24.83;46.05
82784;BME280;72520;55.762;37.780;2023-08-31T13:16:51;99820.44;;;24.86;46.20
82784;BME280;72520;55.762;37.780;2023-08-31T13:19:57;99827.19;;;24.90;46.36
82784;BME280;72520;55.762;37.780;2023-08-31T13:23:04;99820.06;;;24.89;45.93
82784;BME280;72520;55.762;37.780;2023-08-31T13:26:09;99821.28;;;24.87;45.89
82784;BME280;72520;55.762;37.780;2023-08-31T13:29:14;99817.41;;;24.81;45.96
82784;BME280;72520;55.762;37.780;2023-08-31T13:32:21;99820.72;;;24.76;46.19
82784;BME280;72520;55.762;37.780;2023-08-31T13:35:26;99819.97;;;24.68;45.76
82784;BME280;72520;55.762;37.780;2023-08-31T13:38:31;99818.88;;;24.62;46.08
82784;BME280;72520;55.762;37.780;2023-08-31T13:41:35;99814.44;;;24.61;45.61
82784;BME280;72520;55.762;37.780;2023-08-31T13:44:39;99819.41;;;24.58;45.91
82784;BME280;72520;55.762;37.780;2023-08-31T13:47:45;99815.59;;;24.52;45.93
82784;BME280;72520;55.762;37.780;2023-08-31T13:50:52;99810.41;;;24.57;46.22
82784;BME280;72520;55.762;37.780;2023-08-31T13:53:56;99818.56;;;24.57;45.96
82784;BME280;72520;55.762;37.780;2023-08-31T13:57:00;99813.13;;;24.57;45.90
82784;BME280;72520;55.762;37.780;2023-08-31T14:00:09;99811.25;;;24.58;45.59
82784;BME280;72520;55.762;37.780;2023-08-31T14:03:18;99811.00;;;24.53;45.82
82784;BME280;72520;55.762;37.780;2023-08-31T14:06:23;99809.94;;;24.54;46.18
82784;BME280;72520;55.762;37.780;2023-08-31T14:09:27;99809.38;;;24.58;46.22
82784;BME280;72520;55.762;37.780;2023-08-31T14:12:34;99802.16;;;24.65;46.05
82784;BME280;72520;55.762;37.780;2023-08-31T14:15:39;99807.13;;;24.62;46.54
82784;BME280;72520;55.762;37.780;2023-08-31T14:18:50;99804.66;;;24.67;46.80
82784;BME280;72520;55.762;37.780;2023-08-31T14:21:55;99801.94;;;24.67;46.62
82784;BME280;72520;55.762;37.780;2023-08-31T14:24:59;99805.44;;;24.61;46.49
82784;BME280;72520;55.762;37.780;2023-08-31T14:28:06;99798.19;;;24.53;46.60
82784;BME280;72520;55.762;37.780;2023-08-31T14:31:10;99796.06;;;24.49;46.53
82784;BME280;72520;55.762;37.780;2023-08-31T14:34:16;99799.81;;;24.48;46.79
82784;BME280;72520;55.762;37.780;2023-08-31T14:37:21;99790.16;;;24.45;46.53
82784;BME280;72520;55.762;37.780;2023-08-31T14:40:26;99792.28;;;24.50;47.05
82784;BME280;72520;55.762;37.780;2023-08-31T14:43:31;99787.22;;;24.47;46.60
82784;BME280;72520;55.762;37.780;2023-08-31T14:46:35;99789.09;;;24.46;46.77
82784;BME280;72520;55.762;37.780;2023-08-31T14:49:41;99798.13;;;24.47;46.87
82784;BME280;72520;55.762;37.780;2023-08-31T14:52:48;99795.78;;;24.44;46.95
82784;BME280;72520;55.762;37.780;2023-08-31T14:55:52;99789.22;;;24.38;47.04
82784;BME280;72520;55.762;37.780;2023-08-31T14:58:56;99795.69;;;24.37;47.11
82784;BME280;72520;55.762;37.780;2023-08-31T15:02:01;99800.13;;;24.38;47.36
82784;BME280;72520;55.762;37.780;2023-08-31T15:05:08;99789.53;;;24.28;47.21
82784;BME280;72520;55.762;37.780;2023-08-31T15:08:12;99796.63;;;24.29;47.17
82784;BME280;72520;55.762;37.780;2023-08-31T15:11:17;99794.84;;;24.37;47.66
82784;BME280;72520;55.762;37.780;2023-08-31T15:14:21;99799.81;;;24.33;47.45
82784;BME280;72520;55.762;37.780;2023-08-31T15:17:26;99796.63;;;24.29;47.67
82784;BME280;72520;55.762;37.780;2023-08-31T15:20:33;99799.72;;;24.26;47.56
82784;BME280;72520;55.762;37.780;2023-08-31T15:23:39;99810.63;;;24.26;47.98
82784;BME280;72520;55.762;37.780;2023-08-31T15:26:44;99809.66;;;24.19;48.03
82784;BME280;72520;55.762;37.780;2023-08-31T15:29:49;99805.72;;;24.07;49.19
82784;BME280;72520;55.762;37.780;2023-08-31T15:32:53;99810.56;;;23.82;51.00
82784;BME280;72520;55.762;37.780;2023-08-31T15:36:06;99812.41;;;23.82;49.91
82784;BME280;72520;55.762;37.780;2023-08-31T15:39:11;99807.66;;;23.84;49.32
82784;BME280;72520;55.762;37.780;2023-08-31T15:42:15;99817.00;;;23.81;50.19
82784;BME280;72520;55.762;37.780;2023-08-31T15:45:21;99809.69;;;23.82;49.86
82784;BME280;72520;55.762;37.780;2023-08-31T15:48:25;99808.53;;;23.62;50.14
82784;BME280;72520;55.762;37.780;2023-08-31T15:51:32;99813.38;;;23.52;51.05
82784;BME280;72520;55.762;37.780;2023-08-31T15:54:37;99817.59;;;23.54;50.30
82784;BME280;72520;55.762;37.780;2023-08-31T15:57:45;99817.53;;;23.40;51.88
82784;BME280;72520;55.762;37.780;2023-08-31T16:00:51;99811.31;;;23.31;51.44
82784;BME280;72520;55.762;37.780;2023-08-31T16:04:05;99816.81;;;23.23;52.03
82784;BME280;72520;55.762;37.780;2023-08-31T16:07:12;99815.63;;;23.25;51.98
82784;BME280;72520;55.762;37.780;2023-08-31T16:10:17;99810.72;;;22.98;54.84
82784;BME280;72520;55.762;37.780;2023-08-31T16:13:21;99809.50;;;22.70;55.55